createdAt,value
2018-12-20T00:00:44.466Z,68.61
2018-12-20T00:03:12.880Z,68.51
2018-12-20T00:05:41.343Z,68.78
2018-12-20T00:08:09.587Z,68.77
2018-12-20T00:10:37.881Z,68.62
2018-12-20T00:13:06.156Z,68.76
2018-12-20T00:15:34.396Z,68.30
2018-12-20T00:18:02.974Z,68.39
2018-12-20T00:20:31.400Z,68.28
2018-12-20T00:22:59.601Z,68.64
2018-12-20T00:25:28.140Z,68.13
2018-12-20T00:27:56.398Z,68.71
2018-12-20T00:30:24.673Z,68.29
2018-12-20T00:32:52.974Z,67.96
2018-12-20T00:35:21.257Z,68.56
2018-12-20T00:37:49.501Z,68.60
2018-12-20T00:40:17.714Z,67.88
2018-12-20T00:42:45.904Z,68.31
2018-12-20T00:45:14.151Z,67.82
2018-12-20T00:47:42.457Z,68.12
2018-12-20T00:50:10.600Z,68.57
2018-12-20T00:52:38.917Z,69.00
2018-12-20T00:55:07.432Z,68.65
2018-12-20T00:57:35.835Z,68.77
2018-12-20T01:00:05.360Z,68.71
2018-12-20T01:02:33.836Z,68.75
2018-12-20T01:05:02.183Z,68.56
2018-12-20T01:07:30.519Z,68.42
2018-12-20T01:09:58.765Z,67.89
2018-12-20T01:12:26.957Z,68.42
2018-12-20T01:14:55.304Z,68.21
2018-12-20T01:17:25.622Z,68.55
2018-12-20T01:19:53.820Z,68.69
2018-12-20T01:22:22.010Z,68.69
2018-12-20T01:24:50.283Z,68.56
2018-12-20T01:27:18.671Z,69.04
2018-12-20T01:29:46.923Z,69.24
2018-12-20T01:32:15.259Z,68.68
2018-12-20T01:34:43.563Z,68.76
2018-12-20T01:37:11.866Z,68.96
2018-12-20T01:39:40.278Z,69.17
2018-12-20T01:42:08.476Z,68.96
2018-12-20T01:44:36.635Z,69.04
2018-12-20T01:47:04.897Z,69.14
2018-12-20T01:49:33.309Z,68.75
2018-12-20T01:52:01.496Z,69.43
2018-12-20T01:54:29.919Z,69.72
2018-12-20T01:56:58.263Z,69.11
2018-12-20T01:59:26.855Z,69.39
2018-12-20T02:01:55.099Z,69.23
2018-12-20T02:04:23.251Z,69.01
2018-12-20T02:06:51.432Z,69.24
2018-12-20T02:09:19.755Z,69.36
2018-12-20T02:11:48.089Z,68.73
2018-12-20T02:14:16.313Z,69.12
2018-12-20T02:16:44.662Z,68.88
2018-12-20T02:19:12.908Z,69.05
2018-12-20T02:21:41.209Z,68.85
2018-12-20T02:24:09.497Z,69.26
2018-12-20T02:26:38.101Z,69.05
2018-12-20T02:29:06.651Z,68.85
2018-12-20T02:31:35.024Z,69.42
2018-12-20T02:34:03.521Z,69.37
2018-12-20T02:36:32.122Z,68.92
2018-12-20T02:39:00.397Z,69.31
2018-12-20T02:41:28.950Z,68.92
2018-12-20T02:43:57.347Z,69.33
2018-12-20T02:46:25.760Z,69.44
2018-12-20T02:48:54.219Z,69.12
2018-12-20T02:51:22.761Z,69.36
2018-12-20T02:53:51.141Z,69.04
2018-12-20T02:56:19.521Z,69.09
2018-12-20T02:58:47.866Z,68.76
2018-12-20T03:01:16.221Z,68.95
2018-12-20T03:03:44.454Z,69.52
2018-12-20T03:06:12.997Z,68.96
2018-12-20T03:08:41.405Z,69.52
2018-12-20T03:11:09.917Z,69.09
2018-12-20T03:13:38.202Z,69.38
2018-12-20T03:16:06.431Z,68.94
2018-12-20T03:18:34.895Z,69.58
2018-12-20T03:21:03.638Z,69.50
2018-12-20T03:23:31.956Z,69.31
2018-12-20T03:26:00.475Z,69.16
2018-12-20T03:28:28.765Z,69.59
2018-12-20T03:30:57.156Z,69.07
2018-12-20T03:33:25.389Z,69.58
2018-12-20T03:35:54.160Z,69.99
2018-12-20T03:38:22.349Z,69.61
2018-12-20T03:40:50.769Z,69.70
2018-12-20T03:43:18.983Z,69.87
2018-12-20T03:45:47.146Z,69.39
2018-12-20T03:48:15.691Z,69.83
2018-12-20T03:50:44.126Z,69.50
2018-12-20T03:53:12.599Z,69.82
2018-12-20T03:55:40.836Z,69.46
2018-12-20T03:58:09.219Z,69.36
2018-12-20T04:00:37.532Z,69.28
2018-12-20T04:03:05.736Z,69.20
2018-12-20T04:05:33.895Z,69.34
2018-12-20T04:08:02.157Z,69.31
2018-12-20T04:10:30.400Z,69.45
2018-12-20T04:12:59.043Z,69.31
2018-12-20T04:15:27.357Z,69.53
2018-12-20T04:17:56.191Z,69.10
2018-12-20T04:20:24.491Z,69.52
2018-12-20T04:22:52.992Z,69.72
2018-12-20T04:25:21.418Z,69.21
2018-12-20T04:27:49.933Z,69.20
2018-12-20T04:30:18.514Z,69.67
2018-12-20T04:32:47.126Z,69.64
2018-12-20T04:35:15.454Z,69.49
2018-12-20T04:37:43.607Z,69.36
2018-12-20T04:40:11.876Z,69.91
2018-12-20T04:42:40.234Z,69.57
2018-12-20T04:45:08.892Z,69.95
2018-12-20T04:47:37.480Z,69.89
2018-12-20T04:50:06.142Z,70.76
2018-12-20T04:52:34.732Z,70.59
2018-12-20T04:55:03.491Z,70.80
2018-12-20T04:57:31.731Z,70.62
2018-12-20T05:00:00.430Z,70.42
2018-12-20T05:02:28.857Z,70.17
2018-12-20T05:04:57.389Z,70.01
2018-12-20T05:07:25.903Z,70.06
2018-12-20T05:09:54.184Z,69.64
2018-12-20T05:12:22.564Z,70.08
2018-12-20T05:14:51.015Z,70.02
2018-12-20T05:17:19.267Z,69.38
2018-12-20T05:19:47.584Z,69.87
2018-12-20T05:22:16.082Z,69.32
2018-12-20T05:24:44.417Z,69.33
2018-12-20T05:27:12.840Z,69.41
2018-12-20T05:29:41.164Z,69.12
2018-12-20T05:32:09.547Z,69.17
2018-12-20T05:34:37.826Z,69.22
2018-12-20T05:37:06.195Z,69.74
2018-12-20T05:39:34.645Z,69.30
2018-12-20T05:42:03.095Z,69.34
2018-12-20T05:44:31.260Z,69.53
2018-12-20T05:46:59.727Z,69.41
2018-12-20T05:49:27.991Z,69.57
2018-12-20T05:51:56.208Z,69.42
2018-12-20T05:54:24.497Z,69.60
2018-12-20T05:56:52.782Z,69.42
2018-12-20T05:59:21.335Z,69.31
2018-12-20T06:01:49.703Z,68.97
2018-12-20T06:04:17.876Z,69.55
2018-12-20T06:06:46.209Z,69.65
2018-12-20T06:09:14.769Z,69.57
2018-12-20T06:11:43.134Z,69.59
2018-12-20T06:14:11.685Z,69.84
2018-12-20T06:16:39.932Z,69.79
2018-12-20T06:19:08.408Z,70.24
2018-12-20T06:21:36.667Z,70.51
2018-12-20T06:24:04.903Z,70.63
2018-12-20T06:26:33.139Z,70.76
2018-12-20T06:29:01.291Z,70.52
2018-12-20T06:31:30.160Z,71.10
2018-12-20T06:33:58.419Z,71.02
2018-12-20T06:36:26.612Z,71.58
2018-12-20T06:38:54.828Z,71.65
2018-12-20T06:41:22.979Z,71.61
2018-12-20T06:43:51.228Z,71.85
2018-12-20T06:46:21.341Z,71.90
2018-12-20T06:48:49.796Z,71.42
2018-12-20T06:51:18.072Z,71.55
2018-12-20T06:53:46.391Z,71.78
2018-12-20T06:56:14.777Z,71.29
2018-12-20T06:58:43.047Z,71.75
2018-12-20T07:01:11.212Z,71.36
2018-12-20T07:03:39.458Z,71.65
2018-12-20T07:06:07.773Z,71.29
2018-12-20T07:08:36.068Z,71.29
2018-12-20T07:11:04.319Z,71.12
2018-12-20T07:13:32.669Z,71.27
2018-12-20T07:16:00.872Z,71.33
2018-12-20T07:18:29.034Z,71.53
2018-12-20T07:20:57.228Z,71.71
2018-12-20T07:23:25.419Z,71.19
2018-12-20T07:25:53.580Z,71.34
2018-12-20T07:28:22.668Z,71.80
2018-12-20T07:30:50.826Z,71.66
2018-12-20T07:33:19.039Z,71.38
2018-12-20T07:35:47.280Z,71.05
2018-12-20T07:38:15.443Z,71.57
2018-12-20T07:40:43.701Z,71.59
2018-12-20T07:43:11.866Z,70.91
2018-12-20T07:45:40.120Z,71.19
2018-12-20T07:48:08.293Z,71.27
2018-12-20T07:50:36.456Z,70.81
2018-12-20T07:53:04.735Z,70.42
2018-12-20T07:55:33.099Z,70.47
2018-12-20T07:58:01.262Z,70.92
2018-12-20T08:00:33.591Z,71.10
2018-12-20T08:03:01.949Z,71.02
2018-12-20T08:05:30.120Z,70.75
2018-12-20T08:07:58.279Z,71.12
2018-12-20T08:10:26.562Z,70.57
2018-12-20T08:12:54.839Z,70.81
2018-12-20T08:15:23.019Z,70.46
2018-12-20T08:17:51.287Z,70.47
2018-12-20T08:20:19.455Z,70.58
2018-12-20T08:22:47.613Z,70.86
2018-12-20T08:25:15.783Z,70.69
2018-12-20T08:27:44.308Z,70.94
2018-12-20T08:30:12.603Z,70.51
2018-12-20T08:32:40.764Z,70.73
2018-12-20T08:35:08.937Z,71.14
2018-12-20T08:37:37.092Z,70.85
2018-12-20T08:40:07.040Z,70.75
2018-12-20T08:42:35.289Z,70.92
2018-12-20T08:45:03.727Z,70.32
2018-12-20T08:47:32.013Z,70.36
2018-12-20T08:50:00.172Z,70.52
2018-12-20T08:52:28.427Z,70.32
2018-12-20T08:54:56.679Z,70.05
2018-12-20T08:57:24.860Z,69.98
2018-12-20T08:59:53.129Z,70.05
2018-12-20T09:02:21.420Z,69.71
2018-12-20T09:04:49.760Z,69.71
2018-12-20T09:07:17.920Z,69.62
2018-12-20T09:09:46.071Z,69.61
2018-12-20T09:12:14.232Z,69.49
2018-12-20T09:14:42.394Z,69.82
2018-12-20T09:17:10.552Z,69.22
2018-12-20T09:19:38.712Z,69.64
2018-12-20T09:22:06.972Z,69.38
2018-12-20T09:24:35.131Z,68.95
2018-12-20T09:27:03.291Z,69.10
2018-12-20T09:29:31.451Z,68.32
2018-12-20T09:31:59.692Z,68.31
2018-12-20T09:34:27.973Z,68.30
2018-12-20T09:36:56.210Z,68.51
2018-12-20T09:39:24.364Z,68.27
2018-12-20T09:41:52.536Z,67.75
2018-12-20T09:44:20.775Z,67.91
2018-12-20T09:46:48.953Z,67.56
2018-12-20T09:49:17.340Z,67.70
2018-12-20T09:51:45.520Z,67.22
2018-12-20T09:54:13.680Z,67.26
2018-12-20T09:56:41.924Z,67.37
2018-12-20T09:59:10.199Z,66.84
2018-12-20T10:01:38.349Z,66.88
2018-12-20T10:04:06.645Z,66.68
2018-12-20T10:06:34.832Z,66.24
2018-12-20T10:09:03.379Z,66.05
2018-12-20T10:11:31.532Z,66.07
2018-12-20T10:13:59.856Z,65.86
2018-12-20T10:16:28.012Z,66.03
2018-12-20T10:18:56.191Z,65.47
2018-12-20T10:21:24.436Z,65.40
2018-12-20T10:23:52.671Z,64.97
2018-12-20T10:26:20.839Z,65.09
2018-12-20T10:28:49.033Z,64.45
2018-12-20T10:31:17.461Z,64.61
2018-12-20T10:33:45.635Z,64.80
2018-12-20T10:36:13.856Z,64.29
2018-12-20T10:38:42.025Z,64.49
2018-12-20T10:41:10.176Z,64.07
2018-12-20T10:43:38.336Z,63.84
2018-12-20T10:46:06.620Z,63.58
2018-12-20T10:48:34.784Z,63.11
2018-12-20T10:51:03.122Z,63.63
2018-12-20T10:53:31.551Z,62.80
2018-12-20T10:55:59.712Z,63.02
2018-12-20T10:58:27.881Z,63.05
2018-12-20T11:01:01.864Z,62.60
2018-12-20T11:03:35.723Z,62.86
2018-12-20T11:06:08.816Z,62.26
2018-12-20T11:08:41.258Z,61.84
2018-12-20T11:11:15.484Z,61.72
2018-12-20T11:13:43.667Z,61.13
2018-12-20T11:16:12.132Z,60.73
2018-12-20T11:18:40.291Z,61.09
2018-12-20T11:21:08.451Z,61.60
2018-12-20T11:23:36.612Z,61.83
2018-12-20T11:26:04.799Z,61.30
2018-12-20T11:28:33.011Z,61.69
2018-12-20T11:31:01.187Z,61.43
2018-12-20T11:33:29.339Z,61.14
2018-12-20T11:35:57.647Z,61.10
2018-12-20T11:38:25.887Z,61.62
2018-12-20T11:40:54.758Z,61.67
2018-12-20T11:43:22.969Z,61.34
2018-12-20T11:45:51.128Z,61.54
2018-12-20T11:48:19.301Z,61.57
2018-12-20T11:50:47.455Z,61.24
2018-12-20T11:53:15.688Z,61.17
2018-12-20T11:55:43.855Z,61.70
2018-12-20T11:58:12.011Z,61.68
2018-12-20T12:00:40.179Z,61.31
2018-12-20T12:03:08.479Z,61.84
2018-12-20T12:05:36.720Z,61.83
2018-12-20T12:08:04.896Z,61.76
2018-12-20T12:10:33.063Z,61.62
2018-12-20T12:13:01.299Z,61.47
2018-12-20T12:15:29.477Z,61.67
2018-12-20T12:17:57.688Z,61.34
2018-12-20T12:20:25.935Z,61.63
2018-12-20T12:22:54.104Z,61.49
2018-12-20T12:25:22.264Z,61.12
2018-12-20T12:27:50.443Z,61.76
2018-12-20T12:30:18.636Z,62.04
2018-12-20T12:32:46.920Z,62.22
2018-12-20T12:35:15.107Z,62.13
2018-12-20T12:37:43.369Z,62.07
2018-12-20T12:40:11.636Z,62.09
2018-12-20T12:42:39.827Z,61.77
2018-12-20T12:45:08.123Z,61.53
2018-12-20T12:47:41.888Z,61.16
2018-12-20T12:50:10.154Z,61.55
2018-12-20T12:52:38.367Z,61.07
2018-12-20T12:55:06.641Z,60.60
2018-12-20T12:57:36.432Z,60.28
2018-12-20T13:00:06.028Z,60.64
2018-12-20T13:02:34.406Z,60.78
2018-12-20T13:05:02.710Z,60.59
2018-12-20T13:07:31.140Z,60.94
2018-12-20T13:09:59.431Z,60.69
2018-12-20T13:12:27.734Z,60.69
2018-12-20T13:14:56.000Z,60.38
2018-12-20T13:17:24.261Z,60.94
2018-12-20T13:19:52.555Z,60.67
2018-12-20T13:22:20.755Z,60.79
2018-12-20T13:24:49.001Z,61.00
2018-12-20T13:27:17.213Z,60.40
2018-12-20T13:29:45.494Z,60.61
2018-12-20T13:32:13.758Z,60.56
2018-12-20T13:34:41.959Z,60.60
2018-12-20T13:37:15.773Z,60.04
2018-12-20T13:39:40.563Z,60.45
2018-12-20T13:42:08.724Z,60.19
2018-12-20T13:44:36.916Z,60.08
2018-12-20T13:47:05.288Z,59.69
2018-12-20T13:49:33.477Z,59.58
2018-12-20T13:52:01.660Z,59.35
2018-12-20T13:54:29.911Z,59.24
2018-12-20T13:56:58.255Z,59.46
2018-12-20T13:59:26.564Z,59.30
2018-12-20T14:01:54.756Z,59.03
2018-12-20T14:04:23.019Z,59.05
2018-12-20T14:06:51.196Z,58.97
2018-12-20T14:09:19.921Z,58.66
2018-12-20T14:11:48.444Z,59.62
2018-12-20T14:14:16.703Z,59.16
2018-12-20T14:16:44.996Z,59.24
2018-12-20T14:19:13.187Z,59.12
2018-12-20T14:21:41.380Z,59.00
2018-12-20T14:24:09.764Z,59.03
2018-12-20T14:26:37.935Z,59.23
2018-12-20T14:29:06.180Z,59.90
2018-12-20T14:31:34.380Z,59.56
2018-12-20T14:34:02.627Z,59.88
2018-12-20T14:36:31.037Z,60.13
2018-12-20T14:38:59.350Z,59.75
2018-12-20T14:41:27.675Z,60.31
2018-12-20T14:43:55.880Z,60.14
2018-12-20T14:46:24.078Z,59.65
2018-12-20T14:48:52.259Z,60.21
2018-12-20T14:51:20.504Z,59.92
2018-12-20T14:53:48.704Z,60.21
2018-12-20T14:56:16.907Z,60.67
2018-12-20T14:58:45.096Z,60.01
2018-12-20T15:01:13.383Z,60.15
2018-12-20T15:03:41.620Z,59.99
2018-12-20T15:06:09.947Z,59.90
2018-12-20T15:08:38.233Z,60.15
2018-12-20T15:11:06.528Z,60.58
2018-12-20T15:13:34.832Z,60.12
2018-12-20T15:16:03.433Z,60.79
2018-12-20T15:18:31.623Z,60.43
2018-12-20T15:20:59.912Z,60.84
2018-12-20T15:23:28.182Z,60.65
2018-12-20T15:25:56.711Z,61.25
2018-12-20T15:28:24.896Z,60.82
2018-12-20T15:30:53.091Z,60.75
2018-12-20T15:33:21.297Z,61.18
2018-12-20T15:35:49.575Z,61.23
2018-12-20T15:38:17.776Z,61.60
2018-12-20T15:40:46.053Z,61.77
2018-12-20T15:43:14.360Z,61.67
2018-12-20T15:45:42.663Z,61.93
2018-12-20T15:48:10.944Z,61.64
2018-12-20T15:50:39.132Z,61.75
2018-12-20T15:53:07.340Z,62.43
2018-12-20T15:55:35.528Z,62.04
2018-12-20T15:58:03.816Z,62.06
2018-12-20T16:00:32.133Z,62.42
2018-12-20T16:03:00.404Z,61.95
2018-12-20T16:05:28.776Z,62.42
2018-12-20T16:08:01.139Z,61.97
2018-12-20T16:10:29.572Z,61.84
2018-12-20T16:12:58.655Z,62.42
2018-12-20T16:15:26.938Z,61.54
2018-12-20T16:17:55.283Z,61.71
2018-12-20T16:20:23.468Z,61.58
2018-12-20T16:22:51.713Z,62.11
2018-12-20T16:25:20.006Z,61.61
2018-12-20T16:27:48.404Z,61.63
2018-12-20T16:30:16.584Z,61.61
2018-12-20T16:32:44.888Z,61.75
2018-12-20T16:35:13.117Z,61.58
2018-12-20T16:37:41.357Z,62.40
2018-12-20T16:40:09.788Z,61.78
2018-12-20T16:42:37.981Z,62.00
2018-12-20T16:45:07.259Z,61.69
2018-12-20T16:47:35.544Z,62.07
2018-12-20T16:50:04.408Z,61.75
2018-12-20T16:52:32.587Z,61.76
2018-12-20T16:55:00.876Z,61.75
2018-12-20T16:57:29.060Z,61.95
2018-12-20T16:59:57.327Z,62.04
2018-12-20T17:02:25.592Z,62.16
2018-12-20T17:04:53.783Z,62.38
2018-12-20T17:07:22.052Z,61.92
2018-12-20T17:09:50.233Z,61.84
2018-12-20T17:12:18.421Z,61.76
2018-12-20T17:14:46.612Z,62.14
2018-12-20T17:17:14.799Z,61.99
2018-12-20T17:19:43.036Z,61.79
2018-12-20T17:22:11.263Z,62.34
2018-12-20T17:24:39.483Z,61.79
2018-12-20T17:27:08.740Z,62.13
2018-12-20T17:29:37.203Z,61.23
2018-12-20T17:32:05.423Z,61.71
2018-12-20T17:34:33.709Z,61.08
2018-12-20T17:37:01.906Z,60.96
2018-12-20T17:39:30.264Z,61.25
2018-12-20T17:41:58.560Z,60.81
2018-12-20T17:44:26.925Z,61.37
2018-12-20T17:46:55.116Z,61.09
2018-12-20T17:49:30.470Z,61.42
2018-12-20T17:51:53.709Z,61.12
2018-12-20T17:54:21.976Z,61.58
2018-12-20T17:56:50.376Z,61.22
2018-12-20T17:59:18.636Z,61.70
2018-12-20T18:01:46.927Z,61.78
2018-12-20T18:04:15.189Z,61.98
2018-12-20T18:06:43.380Z,61.89
2018-12-20T18:09:11.656Z,61.75
2018-12-20T18:11:40.036Z,62.20
2018-12-20T18:14:08.261Z,62.19
2018-12-20T18:16:36.483Z,62.26
2018-12-20T18:19:04.864Z,62.20
2018-12-20T18:21:33.424Z,61.47
2018-12-20T18:24:01.596Z,61.53
2018-12-20T18:26:29.923Z,61.95
2018-12-20T18:28:58.166Z,61.38
2018-12-20T18:31:26.369Z,61.71
2018-12-20T18:33:54.620Z,61.39
2018-12-20T18:36:22.876Z,61.42
2018-12-20T18:38:51.168Z,60.93
2018-12-20T18:41:19.451Z,61.43
2018-12-20T18:43:47.717Z,61.29
2018-12-20T18:46:15.984Z,61.02
2018-12-20T18:48:44.255Z,61.41
2018-12-20T18:51:12.524Z,60.58
2018-12-20T18:53:40.848Z,61.17
2018-12-20T18:56:09.232Z,60.82
2018-12-20T18:58:37.500Z,60.78
2018-12-20T19:01:05.883Z,61.04
2018-12-20T19:03:34.291Z,60.95
2018-12-20T19:06:02.564Z,60.90
2018-12-20T19:08:30.811Z,60.46
2018-12-20T19:10:59.101Z,60.88
2018-12-20T19:13:27.411Z,60.58
2018-12-20T19:15:55.646Z,60.17
2018-12-20T19:18:24.171Z,60.58
2018-12-20T19:20:52.359Z,60.89
2018-12-20T19:23:20.652Z,61.00
2018-12-20T19:25:49.019Z,60.83
2018-12-20T19:28:17.308Z,61.18
2018-12-20T19:30:45.496Z,61.19
2018-12-20T19:33:13.720Z,60.75
2018-12-20T19:35:41.971Z,60.69
2018-12-20T19:38:10.154Z,60.86
2018-12-20T19:40:38.561Z,61.17
2018-12-20T19:43:07.348Z,61.09
2018-12-20T19:45:35.532Z,60.99
2018-12-20T19:48:03.810Z,60.74
2018-12-20T19:50:31.998Z,61.08
2018-12-20T19:53:00.315Z,60.79
2018-12-20T19:55:28.655Z,60.47
2018-12-20T19:57:56.969Z,60.12
2018-12-20T20:00:25.216Z,60.22
2018-12-20T20:02:53.395Z,60.51
2018-12-20T20:05:21.588Z,59.96
2018-12-20T20:07:49.772Z,60.46
2018-12-20T20:10:18.416Z,60.02
2018-12-20T20:12:46.729Z,60.23
2018-12-20T20:15:16.696Z,60.14
2018-12-20T20:17:45.446Z,60.25
2018-12-20T20:20:14.486Z,59.97
2018-12-20T20:22:43.151Z,60.15
2018-12-20T20:25:11.532Z,59.79
2018-12-20T20:27:39.748Z,60.28
2018-12-20T20:30:13.520Z,59.71
2018-12-20T20:32:41.851Z,60.15
2018-12-20T20:35:10.176Z,60.16
2018-12-20T20:37:38.361Z,60.13
2018-12-20T20:40:08.843Z,59.61
2018-12-20T20:42:37.024Z,60.24
2018-12-20T20:45:06.449Z,59.73
2018-12-20T20:47:34.660Z,59.92
2018-12-20T20:50:03.072Z,59.64
2018-12-20T20:52:31.276Z,59.82
2018-12-20T20:54:59.495Z,59.86
2018-12-20T20:57:27.828Z,60.10
2018-12-20T20:59:56.088Z,60.07
2018-12-20T21:02:24.376Z,59.93
2018-12-20T21:04:52.567Z,59.38
2018-12-20T21:07:20.827Z,59.97
2018-12-20T21:09:49.208Z,59.29
2018-12-20T21:12:22.832Z,59.24
2018-12-20T21:14:52.452Z,59.41
2018-12-20T21:17:17.829Z,59.44
2018-12-20T21:19:46.079Z,59.05
2018-12-20T21:22:14.392Z,59.27
2018-12-20T21:24:42.603Z,59.56
2018-12-20T21:27:10.820Z,59.54
2018-12-20T21:29:39.008Z,59.49
2018-12-20T21:32:07.233Z,59.36
2018-12-20T21:34:35.477Z,59.26
2018-12-20T21:37:03.671Z,58.89
2018-12-20T21:39:31.851Z,59.66
2018-12-20T21:42:00.096Z,59.31
2018-12-20T21:44:28.371Z,59.44
2018-12-20T21:46:56.572Z,58.99
2018-12-20T21:49:24.756Z,58.96
2018-12-20T21:51:52.965Z,58.78
2018-12-20T21:54:21.171Z,58.77
2018-12-20T21:56:49.511Z,59.22
2018-12-20T21:59:17.710Z,58.93
2018-12-20T22:01:45.884Z,59.02
2018-12-20T22:04:14.072Z,59.34
2018-12-20T22:06:42.255Z,59.07
2018-12-20T22:09:10.456Z,59.27
2018-12-20T22:11:38.634Z,59.25
2018-12-20T22:14:06.824Z,58.94
2018-12-20T22:16:35.007Z,59.52
2018-12-20T22:19:03.212Z,59.39
2018-12-20T22:21:31.404Z,59.48
2018-12-20T22:23:59.601Z,59.06
2018-12-20T22:26:27.776Z,59.51
2018-12-20T22:28:55.967Z,58.93
2018-12-20T22:31:24.159Z,59.06
2018-12-20T22:33:52.343Z,59.25
2018-12-20T22:36:20.532Z,59.07
2018-12-20T22:38:48.723Z,59.21
2018-12-20T22:41:16.915Z,59.71
2018-12-20T22:43:45.117Z,59.58
2018-12-20T22:46:13.296Z,59.11
2018-12-20T22:48:41.492Z,59.04
2018-12-20T22:51:09.764Z,59.51
2018-12-20T22:53:37.967Z,59.62
2018-12-20T22:56:06.156Z,59.44
2018-12-20T22:58:34.364Z,59.40
2018-12-20T23:01:04.036Z,58.98
2018-12-20T23:03:32.308Z,59.40
2018-12-20T23:06:01.452Z,59.32
2018-12-20T23:08:30.040Z,58.74
2018-12-20T23:10:58.240Z,58.87
2018-12-20T23:13:26.426Z,58.47
2018-12-20T23:15:54.625Z,58.86
2018-12-20T23:18:22.895Z,58.50
2018-12-20T23:20:51.188Z,58.50
2018-12-20T23:23:19.363Z,58.92
2018-12-20T23:25:47.579Z,58.72
2018-12-20T23:28:15.756Z,59.05
2018-12-20T23:30:43.951Z,58.48
2018-12-20T23:33:12.135Z,58.50
2018-12-20T23:35:40.333Z,58.74
2018-12-20T23:38:08.519Z,58.17
2018-12-20T23:40:36.715Z,58.53
2018-12-20T23:43:04.901Z,58.48
2018-12-20T23:45:33.183Z,58.33
2018-12-20T23:48:01.372Z,58.49
2018-12-20T23:50:29.576Z,58.09
2018-12-20T23:52:57.765Z,58.52
2018-12-20T23:55:25.971Z,58.44
2018-12-20T23:57:54.321Z,58.39
